createdAt,value
2018-11-13T00:00:44.363Z,55.65
2018-11-13T00:01:44.094Z,55.65
2018-11-13T00:02:44.314Z,55.64
2018-11-13T00:03:44.156Z,55.65
2018-11-13T00:04:44.529Z,55.67
2018-11-13T00:05:44.065Z,55.68
2018-11-13T00:06:44.299Z,55.66
2018-11-13T00:07:44.389Z,55.67
2018-11-13T00:08:44.292Z,55.65
2018-11-13T00:09:44.604Z,55.68
2018-11-13T00:10:44.172Z,55.68
2018-11-13T00:11:44.271Z,55.69
2018-11-13T00:12:44.523Z,55.68
2018-11-13T00:13:44.398Z,55.67
2018-11-13T00:14:44.316Z,55.67
2018-11-13T00:15:44.244Z,55.69
2018-11-13T00:16:44.107Z,55.75
2018-11-13T00:17:44.274Z,55.67
2018-11-13T00:18:44.545Z,55.71
2018-11-13T00:19:44.304Z,55.73
2018-11-13T00:20:44.048Z,55.71
2018-11-13T00:21:44.249Z,55.71
2018-11-13T00:22:44.323Z,55.7
2018-11-13T00:23:44.096Z,55.7
2018-11-13T00:24:44.126Z,55.73
2018-11-13T00:25:44.121Z,55.74
2018-11-13T00:26:44.214Z,55.7
2018-11-13T00:27:45.758Z,55.74
2018-11-13T00:28:44.209Z,55.72
2018-11-13T00:29:44.190Z,55.7
2018-11-13T00:30:44.307Z,55.72
2018-11-13T00:31:44.265Z,55.74
2018-11-13T00:32:44.350Z,55.69
2018-11-13T00:33:44.181Z,55.74
2018-11-13T00:34:44.081Z,55.7
2018-11-13T00:35:44.557Z,55.75
2018-11-13T00:36:44.184Z,55.73
2018-11-13T00:37:44.232Z,55.72
2018-11-13T00:38:44.075Z,55.73
2018-11-13T00:39:44.579Z,55.74
2018-11-13T00:40:44.068Z,55.75
2018-11-13T00:41:44.193Z,55.75
2018-11-13T00:42:44.051Z,55.74
2018-11-13T00:43:44.127Z,55.75
2018-11-13T00:44:44.259Z,55.78
2018-11-13T00:45:46.994Z,55.76
2018-11-13T00:46:44.230Z,55.75
2018-11-13T00:47:44.303Z,55.75
2018-11-13T00:48:44.269Z,55.78
2018-11-13T00:49:44.363Z,55.78
2018-11-13T00:50:47.058Z,55.81
2018-11-13T00:51:44.178Z,55.82
2018-11-13T00:52:44.385Z,55.8
2018-11-13T00:53:44.392Z,55.81
2018-11-13T00:54:45.195Z,55.78
2018-11-13T00:55:44.496Z,55.8
2018-11-13T00:56:44.241Z,55.82
2018-11-13T00:57:44.199Z,55.8
2018-11-13T00:58:44.490Z,55.8
2018-11-13T00:59:44.166Z,55.83
2018-11-13T01:00:45.177Z,55.78
2018-11-13T01:01:44.118Z,55.81
2018-11-13T01:02:44.598Z,55.82
2018-11-13T01:03:44.302Z,55.82
2018-11-13T01:04:44.551Z,55.84
2018-11-13T01:05:46.280Z,55.84
2018-11-13T01:06:44.176Z,55.84
2018-11-13T01:07:45.669Z,55.81
2018-11-13T01:08:44.254Z,55.8
2018-11-13T01:09:44.073Z,55.81
2018-11-13T01:10:44.058Z,55.86
2018-11-13T01:11:44.929Z,55.84
2018-11-13T01:12:44.571Z,55.84
2018-11-13T01:13:44.147Z,55.86
2018-11-13T01:14:44.321Z,55.86
2018-11-13T01:15:44.180Z,55.86
2018-11-13T01:16:44.252Z,55.87
2018-11-13T01:17:44.062Z,55.91
2018-11-13T01:18:44.275Z,55.89
2018-11-13T01:19:44.101Z,55.9
2018-11-13T01:20:44.126Z,55.9
2018-11-13T01:21:44.285Z,55.89
2018-11-13T01:22:44.271Z,55.88
2018-11-13T01:23:44.680Z,55.86
2018-11-13T01:24:44.536Z,55.91
2018-11-13T01:25:44.242Z,55.88
2018-11-13T01:26:44.226Z,55.89
2018-11-13T01:27:44.153Z,55.91
2018-11-13T01:28:44.350Z,55.89
2018-11-13T01:29:44.455Z,55.9
2018-11-13T01:30:44.174Z,55.89
2018-11-13T01:31:44.294Z,55.89
2018-11-13T01:32:44.122Z,55.97
2018-11-13T01:33:44.236Z,55.93
2018-11-13T01:34:44.328Z,55.94
2018-11-13T01:35:44.106Z,55.93
2018-11-13T01:36:44.323Z,55.93
2018-11-13T01:37:44.317Z,55.95
2018-11-13T01:38:44.233Z,55.92
2018-11-13T01:39:44.155Z,55.95
2018-11-13T01:40:44.191Z,55.94
2018-11-13T01:41:45.871Z,55.93
2018-11-13T01:42:44.452Z,55.92
2018-11-13T01:43:44.018Z,55.96
2018-11-13T01:44:44.229Z,55.92
2018-11-13T01:45:44.238Z,55.94
2018-11-13T01:46:44.475Z,55.94
2018-11-13T01:47:44.396Z,55.93
2018-11-13T01:48:44.088Z,55.92
2018-11-13T01:49:44.163Z,55.99
2018-11-13T01:50:44.108Z,55.96
2018-11-13T01:51:44.347Z,55.94
2018-11-13T01:52:44.302Z,55.96
2018-11-13T01:53:44.218Z,55.97
2018-11-13T01:54:44.043Z,56.01
2018-11-13T01:55:44.211Z,55.94
2018-11-13T01:56:44.195Z,55.95
2018-11-13T01:57:44.183Z,55.96
2018-11-13T01:58:44.207Z,55.96
2018-11-13T01:59:44.049Z,56.01
2018-11-13T02:00:44.188Z,56
2018-11-13T02:01:44.156Z,56.02
2018-11-13T02:02:44.272Z,55.99
2018-11-13T02:03:44.014Z,55.98
2018-11-13T02:04:44.127Z,56
2018-11-13T02:05:44.325Z,56.01
2018-11-13T02:06:44.232Z,56.01
2018-11-13T02:07:44.258Z,56.02
2018-11-13T02:08:44.063Z,56.01
2018-11-13T02:09:44.255Z,56.03
2018-11-13T02:10:44.066Z,56.01
2018-11-13T02:11:44.245Z,56.01
2018-11-13T02:12:43.991Z,56.03
2018-11-13T02:13:44.178Z,56.04
2018-11-13T02:14:44.093Z,56.01
2018-11-13T02:15:44.160Z,56.01
2018-11-13T02:16:44.171Z,56.01
2018-11-13T02:17:44.681Z,56.02
2018-11-13T02:18:44.011Z,56.01
2018-11-13T02:19:44.412Z,56.03
2018-11-13T02:20:44.438Z,56.04
2018-11-13T02:21:44.000Z,56.05
2018-11-13T02:22:44.263Z,56.01
2018-11-13T02:23:44.493Z,56.03
2018-11-13T02:24:44.282Z,56.03
2018-11-13T02:25:44.110Z,56.03
2018-11-13T02:26:44.177Z,56.03
2018-11-13T02:27:44.389Z,55.98
2018-11-13T02:28:44.186Z,56.04
2018-11-13T02:29:44.202Z,56.05
2018-11-13T02:30:44.004Z,56.04
2018-11-13T02:31:44.542Z,56.04
2018-11-13T02:32:44.130Z,56.02
2018-11-13T02:33:44.402Z,56.07
2018-11-13T02:34:43.987Z,56.02
2018-11-13T02:35:45.561Z,56.08
2018-11-13T02:36:44.140Z,56.07
2018-11-13T02:37:44.150Z,56.1
2018-11-13T02:38:44.051Z,56.06
2018-11-13T02:39:43.999Z,56.03
2018-11-13T02:40:44.478Z,56.07
2018-11-13T02:41:44.096Z,56.03
2018-11-13T02:42:44.266Z,56.06
2018-11-13T02:43:44.378Z,56.05
2018-11-13T02:44:44.480Z,56.04
2018-11-13T02:45:44.346Z,56.07
2018-11-13T02:46:44.316Z,56.08
2018-11-13T02:47:44.083Z,56.02
2018-11-13T02:48:44.249Z,56.09
2018-11-13T02:49:44.245Z,56.07
2018-11-13T02:50:44.276Z,56.08
2018-11-13T02:51:44.125Z,56.07
2018-11-13T02:52:44.357Z,56.11
2018-11-13T02:53:44.172Z,56.04
2018-11-13T02:54:44.131Z,56.07
2018-11-13T02:55:44.319Z,56.09
2018-11-13T02:56:44.196Z,56.06
2018-11-13T02:57:44.037Z,56.06
2018-11-13T02:58:44.362Z,56.04
2018-11-13T02:59:44.167Z,56.08
2018-11-13T03:00:44.062Z,56.05
2018-11-13T03:01:44.233Z,56.08
2018-11-13T03:02:44.281Z,56.07
2018-11-13T03:03:44.428Z,56.07
2018-11-13T03:04:43.944Z,56.07
2018-11-13T03:05:44.458Z,56.09
2018-11-13T03:06:43.982Z,56.05
2018-11-13T03:07:44.137Z,56.08
2018-11-13T03:08:44.249Z,56.1
2018-11-13T03:09:44.287Z,56.06
2018-11-13T03:10:44.280Z,56.08
2018-11-13T03:11:44.041Z,56.08
2018-11-13T03:12:44.354Z,56.11
2018-11-13T03:13:45.447Z,56.1
2018-11-13T03:14:44.253Z,56.08
2018-11-13T03:15:44.334Z,56.08
2018-11-13T03:16:44.201Z,56.09
2018-11-13T03:17:44.282Z,56.13
2018-11-13T03:18:44.076Z,56.14
2018-11-13T03:19:44.418Z,56.13
2018-11-13T03:20:44.090Z,56.09
2018-11-13T03:21:44.317Z,56.1
2018-11-13T03:22:44.248Z,56.1
2018-11-13T03:23:44.533Z,56.07
2018-11-13T03:24:44.288Z,56.08
2018-11-13T03:25:44.204Z,56.12
2018-11-13T03:26:44.223Z,56.1
2018-11-13T03:27:44.671Z,56.1
2018-11-13T03:28:44.266Z,56.14
2018-11-13T03:29:44.127Z,56.12
2018-11-13T03:30:44.546Z,56.15
2018-11-13T03:31:44.334Z,56.12
2018-11-13T03:32:44.489Z,56.11
2018-11-13T03:33:43.953Z,56.15
2018-11-13T03:34:44.682Z,56.1
2018-11-13T03:35:44.203Z,56.12
2018-11-13T03:36:44.020Z,56.07
2018-11-13T03:37:44.225Z,56.09
2018-11-13T03:38:44.073Z,56.13
2018-11-13T03:39:44.159Z,56.12
2018-11-13T03:40:44.059Z,56.1
2018-11-13T03:41:44.183Z,56.08
2018-11-13T03:42:44.504Z,56.09
2018-11-13T03:43:44.144Z,56.12
2018-11-13T03:44:44.013Z,56.11
2018-11-13T03:45:44.658Z,56.1
2018-11-13T03:46:43.990Z,56.12
2018-11-13T03:47:43.940Z,56.1
2018-11-13T03:48:43.932Z,56.13
2018-11-13T03:49:44.146Z,56.06
2018-11-13T03:50:44.509Z,56.13
2018-11-13T03:51:44.071Z,56.13
2018-11-13T03:52:44.495Z,56.13
2018-11-13T03:53:44.164Z,56.13
2018-11-13T03:54:44.083Z,56.11
2018-11-13T03:55:44.197Z,56.09
2018-11-13T03:56:43.916Z,56.16
2018-11-13T03:57:44.321Z,56.11
2018-11-13T03:58:44.215Z,56.11
2018-11-13T03:59:44.301Z,56.15
2018-11-13T04:00:44.117Z,56.12
2018-11-13T04:01:44.423Z,56.17
2018-11-13T04:02:44.507Z,56.14
2018-11-13T04:03:44.212Z,56.12
2018-11-13T04:04:44.337Z,56.14
2018-11-13T04:05:44.408Z,56.18
2018-11-13T04:06:44.146Z,56.15
2018-11-13T04:07:44.750Z,56.16
2018-11-13T04:08:43.981Z,56.13
2018-11-13T04:09:44.194Z,56.13
2018-11-13T04:10:43.932Z,56.16
2018-11-13T04:11:44.080Z,56.17
2018-11-13T04:12:44.390Z,56.17
2018-11-13T04:13:44.190Z,56.16
2018-11-13T04:14:43.880Z,56.14
2018-11-13T04:15:44.062Z,56.13
2018-11-13T04:16:44.343Z,56.16
2018-11-13T04:17:43.990Z,56.13
2018-11-13T04:18:44.407Z,56.08
2018-11-13T04:19:44.235Z,56.13
2018-11-13T04:20:44.209Z,56.17
2018-11-13T04:21:44.196Z,56.14
2018-11-13T04:22:44.162Z,56.17
2018-11-13T04:23:44.166Z,56.14
2018-11-13T04:24:44.053Z,56.14
2018-11-13T04:25:44.261Z,56.16
2018-11-13T04:26:44.090Z,56.13
2018-11-13T04:27:44.116Z,56.16
2018-11-13T04:28:44.108Z,56.09
2018-11-13T04:29:44.106Z,56.15
2018-11-13T04:30:45.812Z,56.18
2018-11-13T04:31:44.382Z,56.14
2018-11-13T04:32:44.273Z,56.19
2018-11-13T04:33:44.490Z,56.19
2018-11-13T04:34:44.183Z,56.16
2018-11-13T04:35:44.093Z,56.14
2018-11-13T04:36:44.247Z,56.16
2018-11-13T04:37:44.004Z,56.12
2018-11-13T04:38:44.149Z,56.15
2018-11-13T04:39:44.309Z,56.15
2018-11-13T04:40:44.179Z,56.08
2018-11-13T04:41:43.941Z,56.07
2018-11-13T04:42:44.429Z,56.09
2018-11-13T04:43:44.002Z,56.06
2018-11-13T04:44:44.529Z,56.07
2018-11-13T04:45:44.195Z,56.05
2018-11-13T04:46:45.008Z,56.08
2018-11-13T04:47:44.418Z,56
2018-11-13T04:48:44.032Z,55.97
2018-11-13T04:49:44.105Z,55.97
2018-11-13T04:50:44.096Z,55.94
2018-11-13T04:51:46.150Z,55.89
2018-11-13T04:52:44.092Z,55.87
2018-11-13T04:53:44.191Z,55.84
2018-11-13T04:54:44.503Z,55.9
2018-11-13T04:55:44.074Z,55.84
2018-11-13T04:56:44.376Z,55.76
2018-11-13T04:57:44.029Z,55.74
2018-11-13T04:58:44.297Z,55.71
2018-11-13T04:59:44.044Z,55.71
2018-11-13T05:00:44.328Z,55.67
2018-11-13T05:01:44.009Z,55.66
2018-11-13T05:02:44.839Z,55.62
2018-11-13T05:03:44.130Z,55.66
2018-11-13T05:04:44.074Z,55.57
2018-11-13T05:05:44.173Z,55.65
2018-11-13T05:06:44.122Z,55.62
2018-11-13T05:07:44.357Z,55.65
2018-11-13T05:08:43.921Z,55.67
2018-11-13T05:09:44.164Z,55.64
2018-11-13T05:10:43.972Z,55.76
2018-11-13T05:11:44.191Z,55.63
2018-11-13T05:12:43.988Z,55.61
2018-11-13T05:13:44.106Z,55.66
2018-11-13T05:14:44.205Z,55.66
2018-11-13T05:15:44.104Z,55.57
2018-11-13T05:16:44.141Z,55.7
2018-11-13T05:17:44.125Z,55.6
2018-11-13T05:18:44.211Z,55.61
2018-11-13T05:19:44.437Z,55.63
2018-11-13T05:20:44.429Z,55.64
2018-11-13T05:21:44.993Z,55.66
2018-11-13T05:22:44.374Z,55.7
2018-11-13T05:23:43.925Z,55.67
2018-11-13T05:24:44.127Z,55.61
2018-11-13T05:25:44.505Z,55.63
2018-11-13T05:26:43.938Z,55.67
2018-11-13T05:27:44.382Z,55.68
2018-11-13T05:28:44.074Z,55.68
2018-11-13T05:29:44.059Z,55.66
2018-11-13T05:30:44.068Z,55.68
2018-11-13T05:31:44.165Z,55.77
2018-11-13T05:32:44.193Z,55.7
2018-11-13T05:33:44.217Z,55.72
2018-11-13T05:34:44.044Z,55.72
2018-11-13T05:35:44.380Z,55.77
2018-11-13T05:36:43.917Z,55.74
2018-11-13T05:37:44.451Z,55.77
2018-11-13T05:38:44.280Z,55.68
2018-11-13T05:39:44.153Z,55.78
2018-11-13T05:40:44.386Z,55.7
2018-11-13T05:41:45.529Z,55.75
2018-11-13T05:42:44.178Z,55.75
2018-11-13T05:43:44.131Z,55.74
2018-11-13T05:44:43.864Z,55.74
2018-11-13T05:45:44.273Z,55.78
2018-11-13T05:46:44.193Z,55.84
2018-11-13T05:47:44.021Z,55.72
2018-11-13T05:48:44.027Z,55.77
2018-11-13T05:49:44.379Z,55.81
2018-11-13T05:50:43.977Z,55.78
2018-11-13T05:51:44.139Z,55.75
2018-11-13T05:52:44.304Z,55.75
2018-11-13T05:53:43.917Z,55.74
2018-11-13T05:54:43.910Z,55.73
2018-11-13T05:55:44.196Z,55.76
2018-11-13T05:56:44.268Z,55.71
2018-11-13T05:57:44.082Z,55.75
2018-11-13T05:58:44.032Z,55.75
2018-11-13T05:59:45.101Z,55.68
2018-11-13T06:00:44.666Z,55.71
2018-11-13T06:01:43.948Z,55.76
2018-11-13T06:02:44.029Z,55.63
2018-11-13T06:03:44.072Z,55.72
2018-11-13T06:04:44.284Z,55.68
2018-11-13T06:05:44.414Z,55.65
2018-11-13T06:06:44.154Z,55.64
2018-11-13T06:07:44.177Z,55.67
2018-11-13T06:08:45.338Z,55.66
2018-11-13T06:09:44.032Z,55.67
2018-11-13T06:10:44.217Z,55.64
2018-11-13T06:11:43.877Z,55.65
2018-11-13T06:12:44.297Z,55.61
2018-11-13T06:13:44.244Z,55.7
2018-11-13T06:14:44.355Z,55.67
2018-11-13T06:15:44.210Z,55.69
2018-11-13T06:16:44.572Z,55.61
2018-11-13T06:17:44.360Z,55.63
2018-11-13T06:18:43.996Z,55.68
2018-11-13T06:19:44.384Z,55.63
2018-11-13T06:20:43.909Z,55.65
2018-11-13T06:21:44.391Z,55.63
2018-11-13T06:22:44.840Z,55.64
2018-11-13T06:23:43.973Z,55.69
2018-11-13T06:24:44.118Z,55.72
2018-11-13T06:25:44.096Z,55.65
2018-11-13T06:26:44.671Z,55.66
2018-11-13T06:27:44.000Z,55.61
2018-11-13T06:28:44.065Z,55.56
2018-11-13T06:29:45.699Z,55.66
2018-11-13T06:30:44.149Z,55.62
2018-11-13T06:31:44.223Z,55.62
2018-11-13T06:32:43.989Z,55.62
2018-11-13T06:33:44.157Z,55.6
2018-11-13T06:34:44.089Z,55.66
2018-11-13T06:35:44.164Z,55.63
2018-11-13T06:36:44.023Z,55.58
2018-11-13T06:37:44.517Z,55.67
2018-11-13T06:38:45.952Z,55.62
2018-11-13T06:39:44.047Z,55.64
2018-11-13T06:40:43.967Z,55.61
2018-11-13T06:41:44.192Z,55.63
2018-11-13T06:42:43.946Z,55.63
2018-11-13T06:43:43.940Z,55.62
2018-11-13T06:44:44.189Z,55.65
2018-11-13T06:45:44.057Z,55.63
2018-11-13T06:46:44.121Z,55.64
2018-11-13T06:47:44.062Z,55.62
2018-11-13T06:48:44.122Z,55.58
2018-11-13T06:49:44.935Z,55.59
2018-11-13T06:50:44.009Z,55.59
2018-11-13T06:51:44.853Z,55.64
2018-11-13T06:52:43.904Z,55.6
2018-11-13T06:53:43.927Z,55.64
2018-11-13T06:54:44.065Z,55.65
2018-11-13T06:55:44.250Z,55.74
2018-11-13T06:56:44.064Z,55.68
2018-11-13T06:57:44.467Z,55.65
2018-11-13T06:58:44.085Z,55.61
2018-11-13T06:59:44.136Z,55.63
2018-11-13T07:00:44.532Z,55.6
2018-11-13T07:01:43.858Z,55.63
2018-11-13T07:02:43.976Z,55.6
2018-11-13T07:03:44.267Z,55.63
2018-11-13T07:04:43.926Z,55.63
2018-11-13T07:05:44.112Z,55.61
2018-11-13T07:06:44.567Z,55.6
2018-11-13T07:07:44.008Z,55.65
2018-11-13T07:08:44.089Z,55.65
2018-11-13T07:09:43.984Z,55.61
2018-11-13T07:10:45.479Z,55.6
2018-11-13T07:11:43.896Z,55.58
2018-11-13T07:12:44.268Z,55.61
2018-11-13T07:13:44.147Z,55.65
2018-11-13T07:14:44.213Z,55.61
2018-11-13T07:15:44.076Z,55.64
2018-11-13T07:16:44.264Z,55.65
2018-11-13T07:17:44.385Z,55.56
2018-11-13T07:18:43.980Z,55.65
2018-11-13T07:19:43.941Z,55.64
2018-11-13T07:20:43.996Z,55.57
2018-11-13T07:21:44.163Z,55.63
2018-11-13T07:22:44.180Z,55.61
2018-11-13T07:23:44.013Z,55.59
2018-11-13T07:24:43.908Z,55.59
2018-11-13T07:25:44.014Z,55.62
2018-11-13T07:26:44.271Z,55.57
2018-11-13T07:27:45.465Z,55.64
2018-11-13T07:28:44.139Z,55.59
2018-11-13T07:29:43.958Z,55.63
2018-11-13T07:30:44.344Z,55.65
2018-11-13T07:31:44.056Z,55.64
2018-11-13T07:32:44.136Z,55.59
2018-11-13T07:33:44.566Z,55.63
2018-11-13T07:34:43.967Z,55.63
2018-11-13T07:35:43.859Z,55.63
2018-11-13T07:36:44.297Z,55.6
2018-11-13T07:37:44.207Z,55.63
2018-11-13T07:38:44.102Z,55.6
2018-11-13T07:39:44.473Z,55.6
2018-11-13T07:40:44.278Z,55.57
2018-11-13T07:41:44.191Z,55.6
2018-11-13T07:42:44.271Z,55.62
2018-11-13T07:43:44.295Z,55.63
2018-11-13T07:44:44.014Z,55.63
2018-11-13T07:45:44.305Z,55.6
2018-11-13T07:46:45.330Z,55.67
2018-11-13T07:47:47.014Z,55.61
2018-11-13T07:48:44.145Z,55.62
2018-11-13T07:49:43.959Z,55.67
2018-11-13T07:50:44.089Z,55.63
2018-11-13T07:51:44.179Z,55.6
2018-11-13T07:52:44.097Z,55.66
2018-11-13T07:53:44.375Z,55.62
2018-11-13T07:54:44.259Z,55.65
2018-11-13T07:55:44.078Z,55.68
2018-11-13T07:56:44.085Z,55.65
2018-11-13T07:57:44.257Z,55.67
2018-11-13T07:58:44.274Z,55.66
2018-11-13T07:59:44.062Z,55.65
2018-11-13T08:00:44.045Z,55.69
2018-11-13T08:01:44.117Z,55.63
2018-11-13T08:02:44.088Z,55.63
2018-11-13T08:03:45.481Z,55.64
2018-11-13T08:04:43.983Z,55.69
2018-11-13T08:05:45.131Z,55.69
2018-11-13T08:06:45.862Z,55.67
2018-11-13T08:07:43.920Z,55.68
2018-11-13T08:08:44.027Z,55.67
2018-11-13T08:09:44.265Z,55.65
2018-11-13T08:10:44.153Z,55.65
2018-11-13T08:11:44.183Z,55.68
2018-11-13T08:12:45.393Z,55.65
2018-11-13T08:13:43.910Z,55.68
2018-11-13T08:14:43.952Z,55.69
2018-11-13T08:15:44.207Z,55.7
2018-11-13T08:16:44.360Z,55.71
2018-11-13T08:17:44.017Z,55.68
2018-11-13T08:18:44.420Z,55.68
2018-11-13T08:19:44.127Z,55.69
2018-11-13T08:20:43.869Z,55.66
2018-11-13T08:21:43.988Z,55.7
2018-11-13T08:22:43.956Z,55.74
2018-11-13T08:23:43.950Z,55.68
2018-11-13T08:24:44.263Z,55.7
2018-11-13T08:25:45.241Z,55.72
2018-11-13T08:26:44.090Z,55.68
2018-11-13T08:27:45.424Z,55.68
2018-11-13T08:28:44.984Z,55.71
2018-11-13T08:29:44.216Z,55.67
2018-11-13T08:30:44.717Z,55.72
2018-11-13T08:31:43.850Z,55.7
2018-11-13T08:32:44.042Z,55.7
2018-11-13T08:33:44.048Z,55.72
2018-11-13T08:34:44.182Z,55.79
2018-11-13T08:35:45.289Z,55.8
2018-11-13T08:36:43.857Z,55.79
2018-11-13T08:37:44.041Z,55.78
2018-11-13T08:38:44.201Z,55.83
2018-11-13T08:39:44.006Z,55.81
2018-11-13T08:40:44.046Z,55.81
2018-11-13T08:41:43.988Z,55.87
2018-11-13T08:42:44.415Z,55.95
2018-11-13T08:43:45.021Z,55.92
2018-11-13T08:44:44.339Z,55.94
2018-11-13T08:45:44.186Z,55.93
2018-11-13T08:46:43.953Z,55.92
2018-11-13T08:47:44.181Z,55.88
2018-11-13T08:48:43.977Z,55.87
2018-11-13T08:49:43.891Z,55.88
2018-11-13T08:50:44.678Z,55.83
2018-11-13T08:51:44.089Z,55.85
2018-11-13T08:52:44.024Z,55.83
2018-11-13T08:53:44.149Z,55.83
2018-11-13T08:54:43.838Z,55.83
2018-11-13T08:55:43.999Z,55.83
2018-11-13T08:56:44.063Z,55.79
2018-11-13T08:57:43.962Z,55.79
2018-11-13T08:58:44.456Z,55.84
2018-11-13T08:59:45.769Z,55.84
2018-11-13T09:00:44.029Z,55.81
2018-11-13T09:01:44.222Z,55.81
2018-11-13T09:02:44.366Z,55.82
2018-11-13T09:03:44.068Z,55.84
2018-11-13T09:04:44.203Z,55.82
2018-11-13T09:05:44.371Z,55.79
2018-11-13T09:06:43.982Z,55.83
2018-11-13T09:07:43.810Z,55.77
2018-11-13T09:08:44.176Z,55.78
2018-11-13T09:09:44.043Z,55.81
2018-11-13T09:10:44.060Z,55.81
2018-11-13T09:11:45.899Z,55.81
2018-11-13T09:12:43.962Z,55.78
2018-11-13T09:13:44.030Z,55.81
2018-11-13T09:14:44.183Z,55.86
2018-11-13T09:15:44.427Z,55.81
2018-11-13T09:16:44.085Z,55.77
2018-11-13T09:17:44.113Z,55.78
2018-11-13T09:18:45.297Z,55.79
2018-11-13T09:19:45.943Z,55.79
2018-11-13T09:20:44.303Z,55.77
2018-11-13T09:21:44.883Z,55.79
2018-11-13T09:22:44.681Z,55.81
2018-11-13T09:23:44.001Z,55.78
2018-11-13T09:24:44.490Z,55.79
2018-11-13T09:25:43.801Z,55.82
2018-11-13T09:26:44.194Z,55.83
2018-11-13T09:27:44.593Z,55.8
2018-11-13T09:28:44.109Z,55.81
2018-11-13T09:29:45.340Z,55.83
2018-11-13T09:30:48.749Z,55.79
2018-11-13T09:31:45.287Z,55.83
2018-11-13T09:32:44.143Z,55.79
2018-11-13T09:33:44.539Z,55.78
2018-11-13T09:34:44.007Z,55.8
2018-11-13T09:35:44.004Z,55.8
2018-11-13T09:36:44.022Z,55.81
2018-11-13T09:37:44.080Z,55.84
2018-11-13T09:38:44.211Z,55.86
2018-11-13T09:39:44.055Z,56
2018-11-13T09:40:44.129Z,56.02
2018-11-13T09:41:43.902Z,56.05
2018-11-13T09:42:44.075Z,56
2018-11-13T09:43:43.820Z,56
2018-11-13T09:44:45.152Z,55.91
2018-11-13T09:45:44.515Z,55.97
2018-11-13T09:46:44.197Z,56.06
2018-11-13T09:47:45.579Z,55.94
2018-11-13T09:48:44.709Z,55.99
2018-11-13T09:49:44.154Z,55.99
2018-11-13T09:50:45.186Z,55.99
2018-11-13T09:51:44.993Z,55.98
2018-11-13T09:52:43.889Z,55.94
2018-11-13T09:53:45.872Z,55.97
2018-11-13T09:54:44.046Z,55.95
2018-11-13T09:55:44.576Z,55.95
2018-11-13T09:56:44.169Z,55.93
2018-11-13T09:57:43.829Z,55.93
2018-11-13T09:58:45.401Z,55.97
2018-11-13T09:59:43.841Z,55.92
2018-11-13T10:00:46.654Z,55.95
2018-11-13T10:01:50.053Z,55.98
2018-11-13T10:02:52.988Z,55.99
2018-11-13T10:03:52.562Z,56.05
2018-11-13T10:04:53.824Z,56.05
2018-11-13T10:05:46.534Z,56.01
2018-11-13T10:06:44.570Z,55.98
2018-11-13T10:07:44.058Z,55.97
2018-11-13T10:08:43.940Z,55.93
2018-11-13T10:09:44.293Z,55.92
2018-11-13T10:10:45.465Z,55.94
2018-11-13T10:11:43.870Z,55.95
2018-11-13T10:12:44.071Z,55.95
2018-11-13T10:13:43.883Z,55.92
2018-11-13T10:14:43.985Z,55.92
2018-11-13T10:15:43.895Z,55.88
2018-11-13T10:16:44.138Z,55.94
2018-11-13T10:17:45.774Z,55.92
2018-11-13T10:18:43.908Z,55.93
2018-11-13T10:19:44.150Z,55.95
2018-11-13T10:20:44.251Z,55.9
2018-11-13T10:21:44.146Z,55.89
2018-11-13T10:22:43.863Z,55.92
2018-11-13T10:23:44.412Z,55.95
2018-11-13T10:24:44.048Z,55.92
2018-11-13T10:25:44.180Z,55.92
2018-11-13T10:26:44.421Z,55.97
2018-11-13T10:27:45.072Z,55.93
2018-11-13T10:28:43.783Z,55.94
2018-11-13T10:29:43.998Z,55.93
2018-11-13T10:30:44.047Z,55.99
2018-11-13T10:31:44.138Z,56.02
2018-11-13T10:32:44.042Z,55.97
2018-11-13T10:33:43.880Z,56
2018-11-13T10:34:44.055Z,55.96
2018-11-13T10:35:44.210Z,56
2018-11-13T10:36:44.180Z,56.02
2018-11-13T10:37:43.907Z,55.97
2018-11-13T10:38:43.933Z,56.01
2018-11-13T10:39:43.999Z,56
2018-11-13T10:40:46.304Z,56.02
2018-11-13T10:41:44.212Z,56.01
2018-11-13T10:42:43.953Z,56.03
2018-11-13T10:43:45.453Z,56.05
2018-11-13T10:44:43.786Z,56.08
2018-11-13T10:45:44.344Z,56.01
2018-11-13T10:46:43.756Z,56
2018-11-13T10:47:44.035Z,56.02
2018-11-13T10:48:44.489Z,56.02
2018-11-13T10:49:44.096Z,56.01
2018-11-13T10:50:43.958Z,56.01
2018-11-13T10:51:43.820Z,56.01
2018-11-13T10:52:44.097Z,56.01
2018-11-13T10:53:43.847Z,56.02
2018-11-13T10:54:43.893Z,56
2018-11-13T10:55:44.083Z,56.02
2018-11-13T10:56:43.870Z,56.01
2018-11-13T10:57:43.969Z,56.04
2018-11-13T10:58:44.133Z,56.01
2018-11-13T10:59:46.603Z,56.01
2018-11-13T11:00:43.811Z,56
2018-11-13T11:01:44.065Z,56.08
2018-11-13T11:02:45.617Z,56.06
2018-11-13T11:03:43.978Z,56.06
2018-11-13T11:04:43.958Z,56.05
2018-11-13T11:05:43.945Z,56.05
2018-11-13T11:06:44.384Z,56.04
2018-11-13T11:07:43.809Z,56.06
2018-11-13T11:08:43.895Z,56.05
2018-11-13T11:09:43.861Z,56.03
2018-11-13T11:10:43.966Z,56.02
2018-11-13T11:11:44.081Z,55.98
2018-11-13T11:12:44.518Z,56.05
2018-11-13T11:13:46.014Z,56.03
2018-11-13T11:14:43.863Z,56.05
2018-11-13T11:15:44.164Z,56.03
2018-11-13T11:16:43.798Z,55.99
2018-11-13T11:17:43.940Z,56.07
2018-11-13T11:18:45.671Z,56.03
2018-11-13T11:19:43.808Z,56.04
2018-11-13T11:20:43.979Z,56.01
2018-11-13T11:21:43.845Z,56.05
2018-11-13T11:22:45.021Z,56.07
2018-11-13T11:23:46.199Z,56.03
2018-11-13T11:24:44.048Z,56
2018-11-13T11:25:43.966Z,55.99
2018-11-13T11:26:43.846Z,56.02
2018-11-13T11:27:44.618Z,55.99
2018-11-13T11:28:43.946Z,56.01
2018-11-13T11:29:43.937Z,55.97
2018-11-13T11:30:43.792Z,56.01
2018-11-13T11:31:44.059Z,56.01
2018-11-13T11:32:44.103Z,55.99
2018-11-13T11:33:43.937Z,55.95
2018-11-13T11:34:44.012Z,55.99
2018-11-13T11:35:43.967Z,56.03
2018-11-13T11:36:43.996Z,56.02
2018-11-13T11:37:43.858Z,56.02
2018-11-13T11:38:45.644Z,56.05
2018-11-13T11:39:43.840Z,56.05
2018-11-13T11:40:43.761Z,56.06
2018-11-13T11:41:43.786Z,56.06
2018-11-13T11:42:43.945Z,56.05
2018-11-13T11:43:44.016Z,56.04
2018-11-13T11:44:43.815Z,56.06
2018-11-13T11:45:43.988Z,56.01
2018-11-13T11:46:44.163Z,56.05
2018-11-13T11:47:43.933Z,56.01
2018-11-13T11:48:43.766Z,56.05
2018-11-13T11:49:43.844Z,56.06
2018-11-13T11:50:44.008Z,56.07
2018-11-13T11:51:43.905Z,56.07
2018-11-13T11:52:44.031Z,56.08
2018-11-13T11:53:45.076Z,56.03
2018-11-13T11:54:44.235Z,56.03
2018-11-13T11:55:43.849Z,56.05
2018-11-13T11:56:44.046Z,56.08
2018-11-13T11:57:44.060Z,56.09
2018-11-13T11:58:44.020Z,56.04
2018-11-13T11:59:44.027Z,56.03
2018-11-13T12:00:45.659Z,56.08
2018-11-13T12:01:44.104Z,56.03
2018-11-13T12:02:43.959Z,56.07
2018-11-13T12:03:44.062Z,56.02
2018-11-13T12:04:44.124Z,56.06
2018-11-13T12:05:43.966Z,56.05
2018-11-13T12:06:44.742Z,56.08
2018-11-13T12:07:43.770Z,56.06
2018-11-13T12:08:44.005Z,56.05
2018-11-13T12:09:43.930Z,56.03
2018-11-13T12:10:43.696Z,56.03
2018-11-13T12:11:43.970Z,56.06
2018-11-13T12:12:43.766Z,56.05
2018-11-13T12:13:43.887Z,56.03
2018-11-13T12:14:43.994Z,56.08
2018-11-13T12:15:43.949Z,56.05
2018-11-13T12:16:43.760Z,56.06
2018-11-13T12:17:44.076Z,56.01
2018-11-13T12:18:44.634Z,56.06
2018-11-13T12:19:44.114Z,56.07
2018-11-13T12:20:44.058Z,56.08
2018-11-13T12:21:43.838Z,56.06
2018-11-13T12:22:43.917Z,56.08
2018-11-13T12:23:44.370Z,56.08
2018-11-13T12:24:44.789Z,56.06
2018-11-13T12:25:45.513Z,56.02
2018-11-13T12:26:43.953Z,56.09
2018-11-13T12:27:44.277Z,56.07
2018-11-13T12:28:43.801Z,56.09
2018-11-13T12:29:44.397Z,56.04
2018-11-13T12:30:43.941Z,56.09
2018-11-13T12:31:44.178Z,56.04
2018-11-13T12:32:44.933Z,56.08
2018-11-13T12:33:44.163Z,56.08
2018-11-13T12:34:45.958Z,56.07
2018-11-13T12:35:43.808Z,56.07
2018-11-13T12:36:44.137Z,56.04
2018-11-13T12:37:43.859Z,56.07
2018-11-13T12:38:43.851Z,56.05
2018-11-13T12:39:44.017Z,56.06
2018-11-13T12:40:45.315Z,56.01
2018-11-13T12:41:44.006Z,56.1
2018-11-13T12:42:44.187Z,56.07
2018-11-13T12:43:44.343Z,56.11
2018-11-13T12:44:43.925Z,56.04
2018-11-13T12:45:43.889Z,56.11
2018-11-13T12:46:43.850Z,56.09
2018-11-13T12:47:43.968Z,56.05
2018-11-13T12:48:44.800Z,56.07
2018-11-13T12:49:43.795Z,56.04
2018-11-13T12:50:43.963Z,56.07
2018-11-13T12:51:44.156Z,56.04
2018-11-13T12:52:44.256Z,56.06
2018-11-13T12:53:43.874Z,56.1
2018-11-13T12:54:43.954Z,56.07
2018-11-13T12:55:45.562Z,56.14